createdAt,value
2023-04-13T05:26:46.297Z,1.20
2023-04-13T05:29:27.885Z,1.38
2023-04-13T05:32:05.076Z,1.27
2023-04-13T05:34:41.797Z,1.55
2023-04-13T05:37:23.848Z,1.50
2023-04-13T05:40:00.302Z,1.48
2023-04-13T05:42:43.342Z,1.40
2023-04-13T05:45:26.403Z,1.20
2023-04-13T05:48:22.686Z,1.42
2023-04-13T05:51:03.203Z,1.70
2023-04-13T05:53:41.311Z,1.83
2023-04-13T05:56:16.326Z,1.67
2023-04-13T05:58:54.486Z,1.50
2023-04-13T06:01:33.880Z,1.60
2023-04-13T06:04:11.159Z,1.40
2023-04-13T06:06:46.839Z,1.70
2023-04-13T06:09:24.513Z,1.20
2023-04-13T06:12:01.270Z,1.20
2023-04-13T06:14:38.782Z,1.10
2023-04-13T06:17:13.891Z,1.10
2023-04-13T06:19:50.447Z,1.00
2023-04-13T06:22:25.932Z,1.17
2023-04-13T06:25:01.950Z,1.30
2023-04-13T06:27:42.046Z,1.30
2023-04-13T06:30:20.643Z,1.65
2023-04-13T06:33:00.568Z,1.40
2023-04-13T06:35:37.895Z,1.48
2023-04-13T06:38:13.486Z,1.60
2023-04-13T06:41:07.264Z,1.70
2023-04-13T06:43:46.232Z,1.50
2023-04-13T06:46:38.724Z,1.23
2023-04-13T06:49:20.322Z,1.20
2023-04-13T06:51:59.737Z,1.10
2023-04-13T06:54:34.738Z,1.50
2023-04-13T06:57:16.488Z,1.35
2023-04-13T06:59:51.558Z,1.55
2023-04-13T07:02:30.674Z,1.65
2023-04-13T07:05:08.764Z,1.58
2023-04-13T07:07:44.654Z,1.77
2023-04-13T07:10:21.494Z,1.90
2023-04-13T07:12:58.407Z,1.10
2023-04-13T07:15:36.408Z,1.70
2023-04-13T07:18:14.120Z,1.25
2023-04-13T07:20:49.379Z,1.50
2023-04-13T07:23:28.356Z,1.50
2023-04-13T07:26:04.577Z,1.60
2023-04-13T07:28:40.207Z,1.13
2023-04-13T07:31:15.702Z,1.25
2023-04-13T07:33:57.590Z,1.30
2023-04-13T07:36:43.613Z,1.08
2023-04-13T07:39:23.244Z,1.00
2023-04-13T07:42:01.075Z,1.10
2023-04-13T07:45:03.613Z,1.10
2023-04-13T07:47:39.455Z,1.17
2023-04-13T07:50:19.686Z,1.00
2023-04-13T07:52:55.512Z,1.10
2023-04-13T07:55:32.799Z,1.30
2023-04-13T07:58:08.442Z,1.30
2023-04-13T08:00:44.109Z,1.38
2023-04-13T08:03:20.605Z,1.40
2023-04-13T08:06:00.932Z,1.58
2023-04-13T08:08:37.202Z,1.92
2023-04-13T08:11:13.469Z,1.90
2023-04-13T08:13:50.085Z,1.50
2023-04-13T08:16:26.870Z,1.80
2023-04-13T08:19:05.029Z,2.00
2023-04-13T08:21:46.389Z,1.90
2023-04-13T08:24:22.298Z,1.60
2023-04-13T08:27:00.361Z,1.63
2023-04-13T08:29:35.805Z,1.92
2023-04-13T08:32:11.830Z,1.90
2023-04-13T08:34:47.206Z,1.60
2023-04-13T08:37:28.253Z,1.65
2023-04-13T08:40:03.816Z,1.50
2023-04-13T08:42:41.311Z,1.67
2023-04-13T08:45:18.742Z,1.60
2023-04-13T08:47:56.876Z,1.42
2023-04-13T08:50:33.375Z,1.65
2023-04-13T08:53:11.862Z,2.30
2023-04-13T08:55:50.144Z,2.33
2023-04-13T08:58:29.537Z,2.20
2023-04-13T09:01:06.390Z,3.30
2023-04-13T09:03:51.462Z,1.95
2023-04-13T09:06:34.699Z,1.90
2023-04-13T09:09:17.410Z,1.80
2023-04-13T09:11:53.027Z,1.73
2023-04-13T09:14:29.440Z,1.85
2023-04-13T09:17:07.057Z,1.83
2023-04-13T09:19:47.169Z,2.10
2023-04-13T09:22:23.268Z,1.90
2023-04-13T09:25:01.036Z,2.05
2023-04-13T09:27:36.708Z,3.10
2023-04-13T09:30:14.058Z,4.53
2023-04-13T09:32:49.076Z,2.47
2023-04-13T09:35:24.235Z,1.80
2023-04-13T09:38:00.456Z,1.65
2023-04-13T09:40:40.767Z,1.70
2023-04-13T09:43:16.200Z,1.55
2023-04-13T09:45:52.403Z,1.48
2023-04-13T09:48:28.096Z,1.50
2023-04-13T09:51:07.041Z,1.50
2023-04-13T09:53:49.878Z,1.30
2023-04-13T09:56:28.896Z,1.35
2023-04-13T09:59:05.171Z,1.48
2023-04-13T10:01:43.030Z,1.60
2023-04-13T10:04:18.835Z,1.60
2023-04-13T10:06:55.151Z,1.50
2023-04-13T10:09:30.642Z,1.40
2023-04-13T10:12:09.498Z,1.50
2023-04-13T10:14:45.919Z,1.77
2023-04-13T10:17:48.789Z,1.80
2023-04-13T10:20:24.919Z,1.83
2023-04-13T10:23:03.629Z,1.45
2023-04-13T10:25:40.027Z,1.42
2023-04-13T10:28:17.632Z,1.10
2023-04-13T10:30:56.546Z,1.20
2023-04-13T10:33:33.333Z,1.15
2023-04-13T10:36:08.868Z,1.20
2023-04-13T10:38:49.313Z,1.20
2023-04-13T10:41:30.907Z,1.10
2023-04-13T10:44:12.685Z,1.00
2023-04-13T10:46:56.340Z,1.25
2023-04-13T10:49:40.238Z,1.33
2023-04-13T10:52:15.910Z,1.30
2023-04-13T10:54:52.186Z,1.10
2023-04-13T10:57:27.424Z,1.30
2023-04-13T11:00:06.029Z,1.00
2023-04-13T11:02:45.775Z,1.02
2023-04-13T11:05:23.982Z,1.10
2023-04-13T11:07:59.808Z,1.17
2023-04-13T11:10:35.468Z,1.08
2023-04-13T11:13:12.119Z,1.27
2023-04-13T11:15:49.894Z,1.50
2023-04-13T11:18:32.163Z,1.33
2023-04-13T11:21:08.822Z,1.10
2023-04-13T11:23:45.242Z,1.42
2023-04-13T11:26:22.047Z,1.30
2023-04-13T11:29:00.723Z,1.38
2023-04-13T11:31:45.776Z,1.20
2023-04-13T11:34:32.714Z,1.35
2023-04-13T11:37:09.577Z,1.23
2023-04-13T11:39:45.543Z,1.27
2023-04-13T11:42:20.748Z,1.50
2023-04-13T11:44:57.923Z,1.27
2023-04-13T11:47:37.044Z,1.35
2023-04-13T11:50:15.609Z,1.38
2023-04-13T11:52:54.046Z,1.60
2023-04-13T11:55:32.830Z,1.35
2023-04-13T11:58:14.139Z,1.40
2023-04-13T12:00:49.444Z,1.20
2023-04-13T12:03:38.529Z,1.30
2023-04-13T12:06:23.051Z,1.25
2023-04-13T12:09:09.958Z,1.25
2023-04-13T12:12:02.126Z,1.50
2023-04-13T12:17:38.042Z,1.33
2023-04-13T12:20:23.240Z,1.50
2023-04-13T12:25:36.180Z,1.67
2023-04-13T12:28:11.839Z,1.52
2023-04-13T12:30:50.026Z,1.63
2023-04-13T12:33:25.792Z,1.90
2023-04-13T12:36:03.403Z,1.60
2023-04-13T12:38:39.319Z,1.63
2023-04-13T12:41:14.822Z,1.75
2023-04-13T12:43:50.552Z,1.70
2023-04-13T12:46:28.087Z,1.77
2023-04-13T12:49:03.441Z,1.90
2023-04-13T12:51:40.848Z,1.48
2023-04-13T12:54:19.619Z,1.90
2023-04-13T12:56:58.673Z,1.95
2023-04-13T12:59:33.615Z,1.75
2023-04-13T13:02:08.604Z,1.60
2023-04-13T13:04:44.100Z,1.67
2023-04-13T13:07:21.331Z,1.63
2023-04-13T13:09:57.549Z,1.50
2023-04-13T13:12:34.128Z,1.17
2023-04-13T13:15:12.218Z,1.42
2023-04-13T13:17:48.036Z,1.20
2023-04-13T13:20:23.187Z,1.20
2023-04-13T13:23:00.323Z,1.73
2023-04-13T13:25:39.706Z,1.50
2023-04-13T13:28:17.229Z,1.58
2023-04-13T13:30:53.529Z,1.60
2023-04-13T13:33:29.441Z,1.70
2023-04-13T13:36:05.598Z,1.70
2023-04-13T13:38:43.188Z,1.52
2023-04-13T13:41:19.208Z,1.60
2023-04-13T13:43:54.480Z,1.85
2023-04-13T13:46:30.965Z,1.60
2023-04-13T13:49:09.097Z,1.65
2023-04-13T13:52:07.968Z,1.60
2023-04-13T13:54:53.634Z,2.00
2023-04-13T13:57:29.202Z,1.50
2023-04-13T14:00:14.796Z,1.50
2023-04-13T14:02:51.107Z,1.30
2023-04-13T14:05:26.806Z,1.40
2023-04-13T14:08:02.617Z,1.40
2023-04-13T14:10:40.797Z,1.50
2023-04-13T14:13:15.882Z,1.50
2023-04-13T14:15:51.440Z,1.40
2023-04-13T14:18:27.389Z,1.30
2023-04-13T14:21:03.491Z,1.20
2023-04-13T14:23:39.055Z,1.50
2023-04-13T14:26:16.790Z,1.05
2023-04-13T14:28:52.925Z,1.30
2023-04-13T14:31:28.587Z,1.10
2023-04-13T14:34:03.816Z,1.33
2023-04-13T14:36:39.000Z,1.30
2023-04-13T14:39:14.457Z,1.30
2023-04-13T14:41:52.985Z,1.33
2023-04-13T14:44:28.997Z,1.38
2023-04-13T14:47:08.930Z,1.38
2023-04-13T14:49:47.524Z,1.20
2023-04-13T14:52:22.799Z,1.40
2023-04-13T14:55:01.681Z,1.45
2023-04-13T14:57:39.594Z,1.20
2023-04-13T15:00:23.327Z,1.10
2023-04-13T15:02:59.178Z,1.60
2023-04-13T15:05:40.145Z,0.98
2023-04-13T15:08:15.949Z,1.40
2023-04-13T15:10:51.891Z,1.50
2023-04-13T15:13:29.940Z,1.48
2023-04-13T15:16:05.062Z,1.55
2023-04-13T15:18:40.688Z,1.20
2023-04-13T15:21:16.509Z,1.50
2023-04-13T15:23:52.339Z,1.67
2023-04-13T15:26:28.037Z,1.50
2023-04-13T15:29:05.902Z,1.25
2023-04-13T15:31:42.651Z,1.60
2023-04-13T15:34:18.192Z,1.40
2023-04-13T15:36:53.445Z,1.20
2023-04-13T15:39:29.847Z,1.40
2023-04-13T15:42:05.604Z,1.70
2023-04-13T15:44:44.673Z,1.50
2023-04-13T15:47:19.883Z,1.83
2023-04-13T15:49:55.033Z,1.67
2023-04-13T15:52:30.931Z,2.28
2023-04-13T15:55:06.770Z,1.90
2023-04-13T15:57:42.246Z,1.95
2023-04-13T16:00:21.021Z,1.88
2023-04-13T16:02:56.870Z,1.75
2023-04-13T16:05:32.611Z,1.60
2023-04-13T16:08:09.653Z,1.50
2023-04-13T16:10:45.913Z,1.70
2023-04-13T16:13:22.710Z,1.50
2023-04-13T16:16:05.431Z,1.42
2023-04-13T16:18:41.983Z,1.50
2023-04-13T16:21:21.060Z,1.73
2023-04-13T16:23:56.479Z,1.60
2023-04-13T16:26:32.016Z,1.38
2023-04-13T16:29:07.584Z,1.80
2023-04-13T16:31:46.489Z,1.90
2023-04-13T16:34:26.032Z,1.92
2023-04-13T16:37:02.339Z,1.63
2023-04-13T16:39:37.265Z,1.50
2023-04-13T16:42:12.766Z,1.40
2023-04-13T16:44:48.408Z,1.85
2023-04-13T16:47:29.289Z,1.40
2023-04-13T16:50:04.710Z,1.40
2023-04-13T16:52:40.671Z,1.33
2023-04-13T16:55:17.262Z,1.65
2023-04-13T16:57:52.574Z,1.50
2023-04-13T17:00:28.300Z,1.02
2023-04-13T17:03:06.201Z,1.20
2023-04-13T17:05:41.829Z,1.10
2023-04-13T17:08:18.190Z,1.40
2023-04-13T17:10:53.870Z,1.52
2023-04-13T17:13:29.128Z,1.00
2023-04-13T17:16:04.770Z,1.35
2023-04-13T17:18:43.353Z,1.40
2023-04-13T17:21:18.560Z,1.25
2023-04-13T17:23:53.571Z,1.10
2023-04-13T17:26:29.149Z,1.05
2023-04-13T17:29:05.127Z,1.17
2023-04-13T17:31:40.323Z,1.10
2023-04-13T17:34:18.098Z,1.23
2023-04-13T17:36:53.902Z,1.23
2023-04-13T17:39:29.729Z,1.42
2023-04-13T17:42:04.876Z,1.52
2023-04-13T17:44:40.270Z,1.40
2023-04-13T17:47:16.277Z,1.85
2023-04-13T17:49:54.452Z,1.30
2023-04-13T17:52:31.375Z,1.25
2023-04-13T17:55:06.547Z,1.48
2023-04-13T17:57:42.281Z,1.40
2023-04-13T18:00:19.111Z,1.20
2023-04-13T18:02:55.052Z,0.95
2023-04-13T18:05:32.905Z,1.42
2023-04-13T18:08:08.418Z,1.23
2023-04-13T18:10:43.911Z,1.10
2023-04-13T18:13:19.077Z,1.00
2023-04-13T18:15:54.476Z,1.20
2023-04-13T18:18:29.958Z,1.20
2023-04-13T18:21:08.325Z,1.05
2023-04-13T18:23:43.580Z,1.30
2023-04-13T18:26:19.006Z,1.25
2023-04-13T18:28:54.704Z,1.23
2023-04-13T18:31:30.209Z,1.45
2023-04-13T18:34:08.291Z,1.23
2023-04-13T18:36:46.359Z,1.48
2023-04-13T18:39:22.460Z,1.40
2023-04-13T18:41:58.045Z,1.20
2023-04-13T18:44:33.244Z,1.40
2023-04-13T18:47:08.564Z,1.20
2023-04-13T18:49:44.324Z,1.45
2023-04-13T18:52:22.303Z,1.20
2023-04-13T18:54:57.626Z,1.35
2023-04-13T18:57:32.830Z,1.17
2023-04-13T19:00:08.713Z,0.93
2023-04-13T19:02:48.021Z,1.13
2023-04-13T19:05:23.486Z,1.45
2023-04-13T19:08:05.494Z,1.35
2023-04-13T19:10:41.100Z,1.15
2023-04-13T19:13:17.375Z,1.20
2023-04-13T19:15:52.535Z,1.20
2023-04-13T19:18:28.851Z,1.08
2023-04-13T19:21:06.766Z,1.45
2023-04-13T19:23:44.614Z,1.27
2023-04-13T19:26:19.628Z,1.55
2023-04-13T19:28:54.572Z,1.10
2023-04-13T19:31:30.297Z,1.25
2023-04-13T19:34:06.002Z,1.33
2023-04-13T19:36:41.738Z,1.38
2023-04-13T19:39:19.509Z,1.20
2023-04-13T19:41:55.247Z,1.30
2023-04-13T19:44:31.015Z,1.30
2023-04-13T19:47:06.335Z,1.48
2023-04-13T19:49:41.550Z,1.50
2023-04-13T19:52:19.787Z,1.40
2023-04-13T19:54:57.830Z,1.73
2023-04-13T19:57:33.116Z,1.50
2023-04-13T20:00:10.504Z,1.58
2023-04-13T20:02:46.328Z,1.70
2023-04-13T20:05:23.262Z,1.52
2023-04-13T20:07:58.788Z,1.50
2023-04-13T20:10:36.485Z,1.70
2023-04-13T20:13:12.280Z,1.80
2023-04-13T20:15:47.832Z,1.73
2023-04-13T20:18:22.898Z,1.55
2023-04-13T20:20:58.376Z,1.80
2023-04-13T20:23:38.218Z,2.13
2023-04-13T20:26:16.987Z,1.80
2023-04-13T20:28:52.478Z,1.92
2023-04-13T20:31:27.584Z,1.73
2023-04-13T20:34:04.707Z,2.20
2023-04-13T20:36:40.348Z,2.00
2023-04-13T20:39:15.459Z,1.92
2023-04-13T20:41:56.638Z,2.40
2023-04-13T20:44:32.222Z,2.13
2023-04-13T20:47:07.725Z,2.10
2023-04-13T20:49:43.523Z,2.40
2023-04-13T20:52:19.793Z,2.10
2023-04-13T20:54:56.239Z,2.00
2023-04-13T20:57:34.655Z,2.20
2023-04-13T21:00:13.834Z,1.90
2023-04-13T21:02:50.679Z,1.70
2023-04-13T21:05:26.981Z,2.30
2023-04-13T21:08:02.299Z,1.90
2023-04-13T21:10:37.452Z,2.10
2023-04-13T21:13:14.998Z,2.00
2023-04-13T21:15:50.554Z,1.90
2023-04-13T21:18:28.397Z,2.20
2023-04-13T21:21:03.616Z,2.10
2023-04-13T21:23:39.586Z,2.25
2023-04-13T21:26:15.015Z,1.98
2023-04-13T21:28:52.728Z,2.30
2023-04-13T21:31:27.629Z,2.22
2023-04-13T21:34:02.962Z,1.80
2023-04-13T21:39:17.517Z,1.92
2023-04-13T21:41:52.457Z,1.90
2023-04-13T21:44:30.369Z,1.90
2023-04-13T21:47:05.624Z,2.00
2023-04-13T21:49:40.961Z,2.15
2023-04-13T21:52:15.883Z,1.98
2023-04-13T21:54:51.741Z,2.17
2023-04-13T21:57:27.274Z,2.30
2023-04-13T22:00:09.522Z,2.35
2023-04-13T22:02:57.223Z,2.30
2023-04-13T22:05:38.140Z,2.35
2023-04-13T22:08:13.806Z,2.00
2023-04-13T22:10:49.717Z,2.10
2023-04-13T22:13:24.747Z,2.20
2023-04-13T22:16:02.431Z,2.08
2023-04-13T22:18:38.238Z,2.10
2023-04-13T22:21:13.937Z,2.00
2023-04-13T22:23:49.113Z,1.60
2023-04-13T22:26:24.261Z,2.00
2023-04-13T22:29:00.430Z,2.10
2023-04-13T22:31:38.481Z,2.38
2023-04-13T22:34:13.538Z,2.30
2023-04-13T22:36:48.532Z,2.45
2023-04-13T22:39:24.023Z,2.20
2023-04-13T22:41:59.643Z,1.98
2023-04-13T22:44:38.663Z,1.92
2023-04-13T22:47:19.928Z,2.08
2023-04-13T22:49:56.118Z,1.98
2023-04-13T22:52:31.600Z,2.10
2023-04-13T22:55:06.573Z,2.00
2023-04-13T22:57:41.535Z,2.00
2023-04-13T23:00:18.456Z,1.83
2023-04-13T23:02:57.533Z,1.90
2023-04-13T23:05:32.775Z,1.63
2023-04-13T23:08:08.086Z,1.80
2023-04-13T23:10:43.848Z,1.77
2023-04-13T23:13:19.574Z,1.63
2023-04-13T23:15:54.855Z,1.77
2023-04-13T23:18:32.786Z,2.10
2023-04-13T23:21:15.460Z,1.65
2023-04-13T23:23:51.222Z,1.98
2023-04-13T23:26:26.357Z,1.40
2023-04-13T23:29:02.334Z,1.70
2023-04-13T23:31:38.328Z,1.42
2023-04-13T23:34:16.416Z,1.50
2023-04-13T23:36:51.316Z,1.70
2023-04-13T23:39:26.483Z,1.50
2023-04-13T23:42:01.970Z,1.90
2023-04-13T23:44:37.229Z,1.80
2023-04-13T23:47:12.291Z,1.55
2023-04-13T23:49:50.037Z,2.00
2023-04-13T23:52:25.602Z,1.67
2023-04-13T23:55:01.058Z,1.52
2023-04-13T23:57:39.563Z,1.58
